Accueil
METAR-TAF:

METAR-TAF

Aéroports :

Aérodrome de M'fuwe

Mfuwe, Zambie

latitude: 13-15-32S, longitude: 031-56-12E, altitude: 573 m

METAR: absent

Heure: 14:23 (12:23 UTC)

Prévision

Le bulletin a été fait il y a 2 heures et 23 minutes, à 10:00 UTC
Prévision valable du 15 à 12 UTC au 16 à 18 UTC
Vent 5 kt de sud-est
Visibilité 10 km ou plus
pas de nuages en-dessous de 1500 mètres et pas de cumulonimbus.

TAF: FLMF 151000Z 1512/1618 14005KT CAVOK

Observations et prévisions météorologiques de plus de 4000 aéroports (messages METAR et TAF).

Les stations disponibles sont représentées par des disques jaunes et rouges sur la carte.

Passer la souris dessus pour voir le nom de la station.

Cliquer dessus pour voir les observations et prévisions météorologiques.

Pour changer de carte: cliquez sur les boutons verts avec une croix noire pour zoomer, sur le bouton vert avec un tiret pour effectuer un zoom arrière, ou sur les flèches vertes pour les cartes adjacentes.


METAR-TAF: